createdAt,value
2018-12-31T16:03:13.163Z,15.50
2018-12-31T16:05:42.399Z,15.70
2018-12-31T16:08:12.122Z,14.50
2018-12-31T16:10:41.688Z,13.40
2018-12-31T16:13:10.889Z,12.20
2018-12-31T16:15:40.101Z,11.30
2018-12-31T16:18:09.232Z,10.50
2018-12-31T16:20:38.822Z,9.90
2018-12-31T16:23:08.014Z,9.40
2018-12-31T16:25:37.331Z,9.00
2018-12-31T16:28:07.401Z,8.80
2018-12-31T16:30:36.762Z,8.50
2018-12-31T16:33:06.526Z,8.30
2018-12-31T16:35:35.726Z,8.10
2018-12-31T16:38:04.834Z,8.00
2018-12-31T16:40:34.318Z,8.00
2018-12-31T16:43:03.523Z,7.90
2018-12-31T16:45:33.163Z,7.80
2018-12-31T16:48:02.350Z,7.70
2018-12-31T16:50:31.635Z,7.70
2018-12-31T16:53:00.814Z,7.70
2018-12-31T16:55:29.989Z,7.60
2018-12-31T16:57:59.500Z,7.60
2018-12-31T17:00:28.756Z,7.60
2018-12-31T17:02:57.935Z,7.60
2018-12-31T17:05:27.072Z,7.50
2018-12-31T17:07:56.256Z,7.50
2018-12-31T17:10:25.654Z,7.50
2018-12-31T17:12:54.757Z,7.50
2018-12-31T17:15:23.952Z,7.50
2018-12-31T17:17:53.127Z,7.60
2018-12-31T17:20:22.252Z,7.60
2018-12-31T17:22:51.842Z,7.60
2018-12-31T17:25:21.112Z,7.50
2018-12-31T17:27:50.220Z,7.50
2018-12-31T17:30:19.474Z,7.50
2018-12-31T17:32:48.582Z,7.60
2018-12-31T17:35:18.018Z,7.60
2018-12-31T17:37:47.154Z,7.60
2018-12-31T17:40:16.266Z,7.60
2018-12-31T17:42:45.386Z,7.60
2018-12-31T17:45:22.638Z,7.60
2018-12-31T17:47:45.530Z,7.60
2018-12-31T17:50:14.719Z,7.60
2018-12-31T17:52:43.827Z,7.60
2018-12-31T17:55:12.948Z,7.60
2018-12-31T17:57:42.042Z,7.60
2018-12-31T18:00:11.625Z,7.60
2018-12-31T18:02:40.735Z,7.60
2018-12-31T18:05:09.828Z,7.50
2018-12-31T18:07:39.026Z,7.60
2018-12-31T18:10:09.334Z,7.50
2018-12-31T18:12:38.826Z,7.50
2018-12-31T18:15:08.026Z,7.50
2018-12-31T18:17:37.171Z,7.60
2018-12-31T18:20:07.191Z,7.50
2018-12-31T18:22:36.380Z,7.60
2018-12-31T18:25:05.517Z,7.60
2018-12-31T18:27:34.687Z,7.60
2018-12-31T18:30:03.819Z,7.60
2018-12-31T18:32:32.927Z,7.60
2018-12-31T18:35:02.062Z,7.60
2018-12-31T18:37:31.162Z,7.60
2018-12-31T18:40:00.267Z,7.60
2018-12-31T18:42:29.395Z,7.50
2018-12-31T18:44:58.475Z,7.50
2018-12-31T18:47:27.597Z,7.50
2018-12-31T18:49:56.855Z,7.50
2018-12-31T18:52:26.086Z,7.50
2018-12-31T18:54:55.183Z,7.50
2018-12-31T18:57:24.271Z,7.60
2018-12-31T18:59:53.361Z,7.60
2018-12-31T19:02:22.739Z,7.60
2018-12-31T19:04:51.876Z,7.60
2018-12-31T19:07:20.956Z,7.50
2018-12-31T19:09:50.073Z,7.50
2018-12-31T19:12:19.187Z,7.50
2018-12-31T19:14:48.655Z,7.50
2018-12-31T19:17:17.741Z,7.50
2018-12-31T19:19:46.835Z,7.50
2018-12-31T19:22:15.958Z,7.50
2018-12-31T19:24:45.037Z,7.50
2018-12-31T19:27:14.424Z,7.50
2018-12-31T19:29:43.596Z,7.60
2018-12-31T19:32:12.769Z,7.50
2018-12-31T19:34:41.947Z,7.50
2018-12-31T19:37:11.111Z,7.60
2018-12-31T19:39:40.545Z,7.60
2018-12-31T19:42:09.791Z,7.60
2018-12-31T19:44:38.875Z,7.50
2018-12-31T19:47:08.039Z,7.60
2018-12-31T19:49:37.145Z,7.50
2018-12-31T19:52:06.269Z,7.50
2018-12-31T19:54:35.445Z,7.50
2018-12-31T19:57:04.585Z,7.50
2018-12-31T19:59:33.673Z,7.50
2018-12-31T20:02:02.777Z,7.50
2018-12-31T20:04:31.891Z,7.50
2018-12-31T20:07:01.454Z,7.50
2018-12-31T20:09:30.758Z,7.60
2018-12-31T20:11:59.847Z,7.50
2018-12-31T20:14:28.953Z,7.50
2018-12-31T20:16:58.044Z,7.50
2018-12-31T20:19:27.132Z,7.50
2018-12-31T20:21:56.326Z,7.50
2018-12-31T20:24:25.502Z,7.50
2018-12-31T20:26:54.595Z,7.50
2018-12-31T20:29:23.776Z,7.50
2018-12-31T20:31:53.150Z,7.50
2018-12-31T20:34:22.268Z,7.50
2018-12-31T20:36:51.499Z,7.50
2018-12-31T20:39:20.731Z,7.50
2018-12-31T20:41:49.881Z,7.50
2018-12-31T20:44:19.019Z,7.50
2018-12-31T20:46:48.183Z,7.50
2018-12-31T20:49:17.271Z,7.50
2018-12-31T20:51:46.417Z,7.50
2018-12-31T20:54:15.521Z,7.50
2018-12-31T20:56:44.628Z,7.50
2018-12-31T20:59:13.713Z,7.50
2018-12-31T21:01:42.860Z,7.50
2018-12-31T21:04:11.980Z,7.50
2018-12-31T21:06:41.113Z,7.50
2018-12-31T21:09:10.365Z,7.60
2018-12-31T21:11:39.929Z,7.60
2018-12-31T21:14:09.123Z,7.50
2018-12-31T21:16:38.249Z,7.60
2018-12-31T21:19:07.427Z,7.60
2018-12-31T21:21:36.556Z,7.50
2018-12-31T21:24:06.107Z,7.60
2018-12-31T21:26:35.325Z,7.60
2018-12-31T21:29:04.453Z,7.60
2018-12-31T21:31:33.582Z,7.50
2018-12-31T21:34:02.769Z,7.50
2018-12-31T21:36:32.240Z,7.50
2018-12-31T21:39:01.421Z,7.50
2018-12-31T21:41:30.523Z,7.50
2018-12-31T21:43:59.619Z,7.50
2018-12-31T21:46:28.767Z,7.60
2018-12-31T21:48:57.879Z,7.60
2018-12-31T21:51:27.009Z,7.60
2018-12-31T21:53:56.131Z,7.60
2018-12-31T21:56:25.215Z,7.50
2018-12-31T21:58:54.419Z,7.60
2018-12-31T22:01:23.502Z,7.50
2018-12-31T22:03:52.690Z,7.60
2018-12-31T22:06:21.855Z,7.60
2018-12-31T22:08:50.987Z,7.60
2018-12-31T22:11:20.109Z,7.50
2018-12-31T22:13:49.127Z,7.60
2018-12-31T22:16:18.581Z,7.60
2018-12-31T22:18:47.671Z,7.60
2018-12-31T22:21:16.758Z,7.60
2018-12-31T22:23:45.911Z,7.60
2018-12-31T22:26:15.023Z,7.60
2018-12-31T22:28:44.547Z,7.60
2018-12-31T22:31:13.691Z,7.60
2018-12-31T22:33:42.868Z,7.60
2018-12-31T22:36:12.010Z,7.60
2018-12-31T22:38:41.109Z,7.60
2018-12-31T22:41:10.597Z,7.60
2018-12-31T22:43:39.741Z,7.60
2018-12-31T22:46:08.851Z,7.60
2018-12-31T22:48:37.941Z,7.60
2018-12-31T22:51:07.137Z,7.60
2018-12-31T22:53:36.628Z,7.60
2018-12-31T22:56:05.805Z,7.60
2018-12-31T22:58:34.879Z,7.50
2018-12-31T23:01:04.293Z,7.60
2018-12-31T23:03:33.404Z,7.50
2018-12-31T23:06:03.073Z,7.60
2018-12-31T23:08:32.164Z,7.50
2018-12-31T23:11:01.710Z,7.50
2018-12-31T23:13:37.174Z,7.50
2018-12-31T23:16:06.662Z,7.50
2018-12-31T23:18:35.875Z,7.50
2018-12-31T23:21:04.893Z,7.50
2018-12-31T23:23:34.015Z,7.50
2018-12-31T23:26:03.607Z,7.50
2018-12-31T23:28:33.170Z,7.50
2018-12-31T23:31:02.345Z,7.50
2018-12-31T23:33:31.372Z,7.50
2018-12-31T23:36:00.558Z,7.50
2018-12-31T23:38:29.718Z,7.50
2018-12-31T23:40:58.771Z,7.50
2018-12-31T23:43:28.005Z,7.60
2018-12-31T23:45:57.132Z,7.50
2018-12-31T23:48:26.230Z,7.50
2018-12-31T23:50:55.362Z,7.60
2018-12-31T23:53:24.534Z,7.50
2018-12-31T23:55:53.629Z,7.50
2018-12-31T23:58:22.658Z,7.60
